Terminal Aerodrome Forecast
Issued by NWS Pocatello, ID

Home | Current Version | Previous Version | Text Only | Print | Product List | Glossary On
Versions: 1 2 3 4 5 6 7 8 9 10 11 12 13 14 15
086
FTUS45 KPIH 140134 AAA
TAFPIH
TAF AMD
KPIH 140134Z 1402/1424 21011KT P6SM FEW040 SCT150
     FM141100 21012KT 3SM -RASN BR BKN015 OVC040
     FM141600 23019G29KT P6SM -SHRA BKN020 OVC040=

USA.gov is the U.S. government's official web portal to all federal, state and local government web resources and services.